Time;durP1;ratioP1;P1;durP2;ratioP2;P2;SDS_P1;SDS_P2;PMS_P1;PMS_P2;Temp;Humidity;BMP_temperature;BMP_pressure;BME280_temperature;BME280_humidity;BME280_pressure;Samples;Min_cycle;Max_cycle;Signal;HPM_P1;HPM_P2
2022/11/07 00:00:35;;;;;;;7.23;0.90;;;;;;;10.83;100.00;100004.19;5051773;28;20455;-58
2022/11/07 00:03:02;;;;;;;6.63;1.30;;;;;;;10.83;100.00;100003.34;5051716;28;20451;-58
2022/11/07 00:05:28;;;;;;;0.83;0.83;;;;;;;10.81;100.00;100010.47;5051421;28;20540;-58
2022/11/07 00:07:55;;;;;;;0.73;0.70;;;;;;;10.94;100.00;100012.66;5051819;28;20461;-58
2022/11/07 00:10:21;;;;;;;2.83;1.03;;;;;;;10.93;100.00;100018.88;5051428;28;20504;-58
2022/11/07 00:12:47;;;;;;;0.80;0.80;;;;;;;10.85;100.00;100015.66;5051423;28;21091;-58
2022/11/07 00:15:14;;;;;;;20.33;1.50;;;;;;;10.85;100.00;100014.78;5051457;28;20454;-58
2022/11/07 00:17:40;;;;;;;2.20;1.67;;;;;;;10.84;100.00;100007.72;5051388;28;20950;-58
2022/11/07 00:20:07;;;;;;;0.80;0.70;;;;;;;10.96;100.00;100009.94;5051039;28;20455;-58
2022/11/07 00:22:34;;;;;;;6.43;2.20;;;;;;;11.00;100.00;100013.38;5033836;28;20503;-58
2022/11/07 00:25:00;;;;;;;1.13;1.13;;;;;;;10.93;100.00;100016.22;5051184;28;20533;-58
2022/11/07 00:27:26;;;;;;;1.90;1.67;;;;;;;10.92;100.00;100006.53;5051541;28;20843;-58
2022/11/07 00:29:53;;;;;;;1.90;1.77;;;;;;;10.88;100.00;100020.84;5051218;28;20451;-58
2022/11/07 00:32:20;;;;;;;1.80;1.00;;;;;;;10.90;100.00;100015.47;5048219;28;20458;-58
2022/11/07 00:34:47;;;;;;;2.33;1.40;;;;;;;10.92;100.00;100016.28;5050904;28;20523;-58
2022/11/07 00:37:13;;;;;;;1.93;1.83;;;;;;;10.94;100.00;100017.09;5051142;28;20498;-58
2022/11/07 00:39:40;;;;;;;1.00;0.73;;;;;;;10.93;100.00;100018.03;5050843;28;20455;-58
2022/11/07 00:42:06;;;;;;;6.80;1.37;;;;;;;10.94;100.00;100020.63;5051228;28;20458;-58
2022/11/07 00:44:33;;;;;;;5.90;1.60;;;;;;;10.98;100.00;100024.06;5051119;28;20519;-58
2022/11/07 00:46:59;;;;;;;2.30;1.60;;;;;;;10.97;100.00;100027.66;5050855;28;20553;-58
2022/11/07 00:49:25;;;;;;;2.03;1.13;;;;;;;10.96;100.00;100021.47;5050663;28;20459;-58
2022/11/07 00:51:52;;;;;;;1.60;1.50;;;;;;;10.94;100.00;100025.94;5051085;28;20462;-58
2022/11/07 00:54:19;;;;;;;1.23;1.13;;;;;;;10.91;100.00;100034.03;5050625;28;20458;-58
2022/11/07 00:56:45;;;;;;;2.77;1.50;;;;;;;10.93;100.00;100032.19;5050631;28;20514;-58
2022/11/07 00:59:12;;;;;;;0.87;0.70;;;;;;;10.95;100.00;100035.66;5050533;28;20450;-58
2022/11/07 01:01:38;;;;;;;0.60;0.60;;;;;;;10.97;100.00;100033.84;5050606;28;20967;-58
2022/11/07 01:06:50;;;;;;;2.80;0.77;;;;;;;10.76;100.00;100013.28;5050710;28;20463;-58
2022/11/07 01:09:19;;;;;;;7.60;0.93;;;;;;;10.77;100.00;100025.66;5050491;28;20500;-58
2022/11/07 01:11:46;;;;;;;0.70;0.70;;;;;;;10.86;100.00;100017.38;5050495;28;20461;-58
2022/11/07 01:14:15;;;;;;;3.13;1.20;;;;;;;10.93;100.00;100026.88;5050104;28;20488;-58
2022/11/07 01:16:41;;;;;;;1.60;1.33;;;;;;;10.97;100.00;100025.88;5050194;28;20524;-59
2022/11/07 01:19:13;;;;;;;1.83;1.03;;;;;;;11.07;100.00;100036.16;5050312;28;20958;-59
2022/11/07 01:21:41;;;;;;;1.03;0.80;;;;;;;11.14;100.00;100035.03;5050104;28;20508;-59
2022/11/07 01:24:09;;;;;;;1.73;1.63;;;;;;;11.15;100.00;100039.44;5050150;28;20455;-59
2022/11/07 01:26:36;;;;;;;1.73;1.43;;;;;;;11.17;100.00;100035.81;5049929;28;20964;-59
2022/11/07 01:29:04;;;;;;;2.10;1.27;;;;;;;11.24;100.00;100021.38;5050344;28;20458;-59
2022/11/07 01:31:30;;;;;;;1.10;0.87;;;;;;;11.30;100.00;100025.59;5047784;28;20460;-59
2022/11/07 01:33:57;;;;;;;2.33;1.63;;;;;;;11.19;100.00;100025.97;5050268;28;20489;-59
2022/11/07 01:36:24;;;;;;;1.80;1.70;;;;;;;11.20;100.00;100030.34;5050167;28;20559;-59
2022/11/07 01:38:50;;;;;;;4.40;1.60;;;;;;;11.25;100.00;100024.91;5049224;28;20463;-59
2022/11/07 01:41:24;;;;;;;3.47;1.27;;;;;;;11.24;100.00;100021.38;5049691;28;20455;-59
2022/11/07 01:43:52;;;;;;;3.60;2.50;;;;;;;11.35;100.00;100017.44;5049844;28;20449;-59
2022/11/07 01:46:20;;;;;;;4.70;1.70;;;;;;;11.28;100.00;100022.13;5031821;28;20471;-59
2022/11/07 01:48:56;;;;;;;1.73;1.20;;;;;;;11.32;100.00;100029.06;5049673;28;20455;-59
2022/11/07 01:51:23;;;;;;;2.73;2.07;;;;;;;11.32;100.00;100023.75;5049571;28;20504;-59
2022/11/07 01:53:52;;;;;;;1.53;0.90;;;;;;;11.36;100.00;100021.84;5049270;28;20532;-59
2022/11/07 01:56:24;;;;;;;6.30;2.70;;;;;;;11.30;100.00;100016.75;5049356;28;20906;-59
2022/11/07 01:58:53;;;;;;;2.80;1.77;;;;;;;11.36;100.00;100017.38;5049663;28;20450;-59
2022/11/07 02:01:19;;;;;;;5.90;1.00;;;;;;;11.33;100.00;100017.50;5049819;28;20459;-59
2022/11/07 02:03:46;;;;;;;1.30;1.27;;;;;;;11.35;100.00;100010.31;5049275;28;20561;-59
2022/11/07 02:06:19;;;;;;;3.00;2.23;;;;;;;11.37;100.00;100016.44;5049274;28;20474;-59
2022/11/07 02:08:47;;;;;;;5.60;2.17;;;;;;;11.40;100.00;100008.38;5049539;28;20451;-59
2022/11/07 02:11:16;;;;;;;2.90;2.23;;;;;;;11.36;100.00;100006.72;5049328;28;20454;-59
2022/11/07 02:13:42;;;;;;;2.90;1.80;;;;;;;11.41;100.00;100006.59;5049182;28;20477;-59
2022/11/07 02:16:09;;;;;;;1.43;1.07;;;;;;;11.30;100.00;100003.44;5049056;28;20498;-59
2022/11/07 02:18:37;;;;;;;11.20;1.37;;;;;;;11.14;100.00;99993.34;5049146;28;20458;-59
2022/11/07 02:21:14;;;;;;;5.00;1.37;;;;;;;11.44;100.00;99988.69;5048961;28;20481;-59
2022/11/07 02:24:12;;;;;;;1.20;1.10;;;;;;;11.44;100.00;99998.47;5049280;28;20465;-59
2022/11/07 02:26:41;;;;;;;0.90;0.90;;;;;;;11.44;100.00;99996.69;5032655;28;20832;-59
2022/11/07 02:29:09;;;;;;;3.43;1.80;;;;;;;11.44;100.00;99999.34;5048868;28;20951;-59
2022/11/07 02:31:35;;;;;;;1.60;0.77;;;;;;;11.45;100.00;99994.88;5046486;28;20467;-59
2022/11/07 02:34:02;;;;;;;4.70;1.30;;;;;;;11.40;100.00;100005.72;5049126;28;20457;-59
2022/11/07 02:36:31;;;;;;;1.53;1.27;;;;;;;11.39;100.00;99998.66;5048624;28;20494;-59
2022/11/07 02:38:58;;;;;;;1.50;1.40;;;;;;;11.38;100.00;99996.94;5048980;28;20944;-59
2022/11/07 02:41:30;;;;;;;1.30;1.20;;;;;;;11.37;100.00;99987.19;5048849;28;20451;-59
2022/11/07 02:44:00;;;;;;;1.30;1.17;;;;;;;11.38;100.00;99988.94;5048632;28;20462;-59
2022/11/07 02:46:30;;;;;;;6.63;2.30;;;;;;;11.40;100.00;99983.56;5049169;28;20887;-59
2022/11/07 02:48:58;;;;;;;1.73;1.63;;;;;;;11.41;100.00;99975.50;5048914;28;20459;-59
2022/11/07 02:51:25;;;;;;;3.17;2.00;;;;;;;11.28;100.00;99971.56;5048575;28;21005;-59
2022/11/07 02:53:52;;;;;;;1.23;1.13;;;;;;;11.27;100.00;99983.13;5048614;28;20454;-59
2022/11/07 02:56:20;;;;;;;1.70;1.30;;;;;;;11.28;100.00;99974.22;5048471;28;20548;-59
2022/11/07 02:58:46;;;;;;;1.30;1.20;;;;;;;11.31;100.00;99984.75;5048810;28;20455;-59
2022/11/07 03:01:14;;;;;;;2.03;1.90;;;;;;;11.34;100.00;99984.63;5048558;28;20947;-59
2022/11/07 03:03:46;;;;;;;1.27;1.17;;;;;;;11.24;100.00;99988.56;5048750;28;20983;-59
2022/11/07 03:06:24;;;;;;;0.90;0.90;;;;;;;11.21;100.00;99984.22;5036169;28;20528;-59
2022/11/07 03:08:51;;;;;;;0.83;0.83;;;;;;;11.08;100.00;99979.38;5048403;28;20530;-59
2022/11/07 03:11:18;;;;;;;1.80;1.07;;;;;;;11.13;100.00;99983.63;5048842;28;20459;-59
2022/11/07 03:13:46;;;;;;;1.23;1.23;;;;;;;11.06;100.00;99989.22;5048507;28;20545;-59
2022/11/07 03:16:14;;;;;;;1.57;1.27;;;;;;;11.12;100.00;99991.69;5049026;28;20506;-59
2022/11/07 03:18:40;;;;;;;1.20;0.77;;;;;;;11.10;100.00;99986.41;5048607;28;20447;-59
2022/11/07 03:21:07;;;;;;;1.60;0.93;;;;;;;11.06;100.00;99983.91;5048491;28;20820;-58
2022/11/07 03:23:34;;;;;;;2.10;1.13;;;;;;;11.12;100.00;99992.53;5048225;28;20454;-59
2022/11/07 03:26:02;;;;;;;0.77;0.77;;;;;;;11.07;100.00;99990.94;5048485;28;20466;-59
2022/11/07 03:28:28;;;;;;;7.20;1.57;;;;;;;11.06;100.00;99997.19;5048402;28;20505;-59
2022/11/07 03:30:59;;;;;;;0.73;0.70;;;;;;;11.08;100.00;99998.00;5048613;28;20454;-59
2022/11/07 03:33:29;;;;;;;1.07;0.97;;;;;;;11.00;100.00;99986.78;5046386;28;20941;-59
2022/11/07 03:35:56;;;;;;;0.73;0.70;;;;;;;10.96;100.00;99993.97;5048219;28;20474;-59
2022/11/07 03:38:22;;;;;;;2.93;1.83;;;;;;;10.94;100.00;100001.16;5048262;28;20516;-58
2022/11/07 03:40:49;;;;;;;1.13;0.80;;;;;;;10.90;100.00;100005.72;5048437;28;20458;-58
2022/11/07 03:43:15;;;;;;;2.80;1.70;;;;;;;10.95;100.00;100006.41;5048280;28;20455;-58
2022/11/07 03:45:42;;;;;;;1.47;1.07;;;;;;;10.94;100.00;100001.16;5048616;28;20516;-59
2022/11/07 03:48:08;;;;;;;0.60;0.60;;;;;;;11.04;100.00;100010.56;5048215;28;20869;-58
2022/11/07 03:50:35;;;;;;;1.03;0.93;;;;;;;11.05;100.00;100008.75;5018103;28;20641;-59
2022/11/07 03:53:01;;;;;;;0.60;0.60;;;;;;;11.02;100.00;100008.88;5047407;28;20458;-59
2022/11/07 03:55:28;;;;;;;3.13;0.93;;;;;;;11.06;100.00;99997.19;5048290;28;20458;-59
2022/11/07 03:57:54;;;;;;;0.60;0.57;;;;;;;11.16;100.00;99999.47;5048000;28;20490;-59
2022/11/07 04:00:21;;;;;;;0.63;0.63;;;;;;;11.20;100.00;100002.88;5048517;28;20843;-58
2022/11/07 04:02:47;;;;;;;1.13;1.00;;;;;;;11.16;100.00;100006.59;5051703;28;20455;-59
2022/11/07 04:05:14;;;;;;;1.37;1.27;;;;;;;11.26;100.00;100003.56;5051580;28;20486;-59
2022/11/07 04:07:40;;;;;;;2.20;0.70;;;;;;;11.26;100.00;100008.88;5051693;28;20482;-58
2022/11/07 04:10:07;;;;;;;0.50;0.40;;;;;;;11.31;100.00;100011.34;5051783;28;20462;-59
2022/11/07 04:18:03;;;;;;;0.60;0.60;;;;;;;11.38;100.00;100017.34;5051901;28;20552;-58
2022/11/07 04:20:29;;;;;;;11.53;2.00;;;;;;;11.37;100.00;100018.25;5051529;28;20880;-58
2022/11/07 04:22:56;;;;;;;4.80;2.60;;;;;;;11.45;100.00;100024.16;5051722;28;20836;-59
2022/11/07 04:27:41;;;;;;;1.43;0.70;;;;;;;11.50;100.00;100025.72;5051689;28;20500;-58
2022/11/07 04:28:08;;;;;;;2.80;2.47;;;;;;;11.57;100.00;100021.94;5051206;28;20824;-59
2022/11/07 04:30:35;;;;;;;7.00;1.50;;;;;;;11.58;100.00;100022.78;5051841;28;20487;-57
2022/11/07 04:33:02;;;;;;;9.33;2.70;;;;;;;11.61;100.00;100020.00;5048468;28;20458;-58
2022/11/07 04:35:31;;;;;;;6.33;2.03;;;;;;;11.70;100.00;100016.16;5051418;28;20454;-58
2022/11/07 04:37:58;;;;;;;1.63;1.53;;;;;;;11.66;100.00;100011.88;5051619;28;20490;-57
2022/11/07 04:40:25;;;;;;;5.80;1.37;;;;;;;11.76;100.00;100014.09;5051230;28;20455;-57
2022/11/07 04:42:53;;;;;;;2.87;1.13;;;;;;;11.77;100.00;100007.84;5051104;28;21002;-57
2022/11/07 04:45:19;;;;;;;5.30;1.40;;;;;;;11.80;100.00;100009.59;5051152;28;20446;-57
2022/11/07 04:47:46;;;;;;;4.20;1.10;;;;;;;11.78;100.00;100009.59;5033296;28;20471;-58
2022/11/07 04:50:15;;;;;;;18.00;1.77;;;;;;;11.77;100.00;100014.97;5051227;28;20504;-58
2022/11/07 04:52:43;;;;;;;1.30;1.20;;;;;;;11.81;100.00;100014.00;5050895;28;20457;-57
2022/11/07 04:55:18;;;;;;;1.70;1.00;;;;;;;12.03;100.00;100014.00;5050913;28;20463;-57
2022/11/07 04:57:44;;;;;;;1.77;1.00;;;;;;;12.09;100.00;100009.31;5050938;28;20493;-57
2022/11/07 05:00:11;;;;;;;5.20;1.00;;;;;;;12.13;100.00;100024.25;5050875;28;20484;-58
2022/11/07 05:02:37;;;;;;;1.40;0.97;;;;;;;12.05;100.00;100015.69;5050976;28;20814;-57
2022/11/07 05:05:04;;;;;;;1.73;0.90;;;;;;;12.05;100.00;100020.13;5022390;28;20825;-57
2022/11/07 05:07:31;;;;;;;0.80;0.80;;;;;;;11.98;100.00;100029.31;5048066;28;20528;-57
2022/11/07 05:09:57;;;;;;;3.43;1.00;;;;;;;12.16;100.00;100032.13;5021777;28;20482;-57
2022/11/07 05:12:24;;;;;;;2.73;1.33;;;;;;;12.20;100.00;100027.56;5047545;28;20451;-57
2022/11/07 05:14:50;;;;;;;6.77;1.33;;;;;;;12.18;100.00;100036.53;5050680;28;20505;-57
2022/11/07 05:17:17;;;;;;;0.80;0.80;;;;;;;12.03;100.00;100033.53;5050027;28;20501;-58
2022/11/07 05:19:44;;;;;;;4.87;1.67;;;;;;;12.07;100.00;100034.31;5050237;28;20546;-59
2022/11/07 05:24:55;;;;;;;20.60;1.53;;;;;;;12.05;100.00;100036.13;5050062;28;20446;-58
2022/11/07 05:27:22;;;;;;;14.37;2.20;;;;;;;12.14;100.00;100031.31;5050096;28;20490;-58
2022/11/07 05:29:49;;;;;;;10.60;1.77;;;;;;;12.28;100.00;100037.91;5049735;28;20450;-57
2022/11/07 05:32:16;;;;;;;3.43;1.43;;;;;;;12.19;100.00;100033.78;5047638;28;20535;-58
2022/11/07 05:34:42;;;;;;;0.80;0.80;;;;;;;12.06;100.00;100041.44;5049625;28;20454;-58
2022/11/07 05:37:11;;;;;;;7.53;1.07;;;;;;;12.11;100.00;100042.09;5049940;28;20498;-57
2022/11/07 05:39:37;;;;;;;0.60;0.50;;;;;;;12.11;100.00;100033.25;5049622;28;20951;-57
2022/11/07 05:42:04;;;;;;;0.93;0.73;;;;;;;12.12;100.00;100025.19;5050098;28;20991;-57
2022/11/07 05:44:31;;;;;;;0.53;0.53;;;;;;;12.12;100.00;100035.84;5050085;28;20524;-58
2022/11/07 05:46:57;;;;;;;3.23;1.13;;;;;;;12.19;100.00;100038.25;5049699;28;20476;-57
2022/11/07 05:49:24;;;;;;;1.00;0.97;;;;;;;12.09;100.00;100037.75;5049470;28;20458;-57
2022/11/07 05:51:52;;;;;;;1.43;1.23;;;;;;;12.19;100.00;100044.44;5049706;28;20920;-58
2022/11/07 05:54:18;;;;;;;5.23;1.23;;;;;;;12.17;100.00;100040.97;5049492;28;20459;-58
2022/11/07 05:56:45;;;;;;;7.23;0.80;;;;;;;12.14;100.00;100047.31;5049526;28;20475;-58
2022/11/07 05:59:14;;;;;;;1.00;1.00;;;;;;;12.28;100.00;100051.22;5049402;28;20450;-58
2022/11/07 06:01:41;;;;;;;0.80;0.70;;;;;;;12.22;100.00;100041.69;5049330;28;20454;-58
2022/11/07 06:04:07;;;;;;;1.13;1.03;;;;;;;12.29;100.00;100042.31;5049244;28;20451;-57
2022/11/07 06:06:34;;;;;;;0.97;0.63;;;;;;;12.25;100.00;100054.03;5049465;28;20474;-58
2022/11/07 06:09:00;;;;;;;15.13;0.67;;;;;;;12.28;100.00;100053.91;5049405;28;20447;-58
2022/11/07 06:11:27;;;;;;;0.80;0.67;;;;;;;12.37;100.00;100064.19;5021847;28;20459;-58
2022/11/07 06:13:53;;;;;;;0.70;0.70;;;;;;;12.29;100.00;100061.81;5045868;28;20512;-58
2022/11/07 06:16:20;;;;;;;2.80;0.93;;;;;;;12.25;100.00;100060.22;5048970;28;20491;-57
2022/11/07 06:18:46;;;;;;;2.03;1.17;;;;;;;12.49;100.00;100058.38;5049233;28;20495;-57
2022/11/07 06:21:13;;;;;;;0.60;0.60;;;;;;;12.49;100.00;100046.84;5049189;28;20857;-58
2022/11/07 06:23:39;;;;;;;0.40;0.30;;;;;;;12.41;100.00;100045.34;5048897;28;20465;-57
2022/11/07 06:26:06;;;;;;;2.33;1.30;;;;;;;12.42;100.00;100046.22;5049023;28;20478;-58
2022/11/07 06:28:32;;;;;;;1.57;0.70;;;;;;;12.39;100.00;100044.53;5048851;28;20446;-57
2022/11/07 06:31:03;;;;;;;0.50;0.47;;;;;;;12.32;100.00;100048.38;5048830;28;20889;-58
2022/11/07 06:33:30;;;;;;;0.87;0.77;;;;;;;12.40;100.00;100051.63;5047260;28;20912;-58
2022/11/07 06:36:08;;;;;;;1.17;1.07;;;;;;;12.48;100.00;100063.78;5048871;28;20478;-58
2022/11/07 06:38:36;;;;;;;12.70;0.80;;;;;;;12.43;100.00;100067.47;5048887;28;20506;-58
2022/11/07 06:41:08;;;;;;;0.70;0.70;;;;;;;12.32;100.00;100069.69;5048903;28;20884;-58
2022/11/07 06:43:34;;;;;;;10.83;1.10;;;;;;;12.53;100.00;100064.47;5028916;28;20459;-57
2022/11/07 06:46:03;;;;;;;3.60;1.83;;;;;;;12.55;100.00;100063.47;5042585;28;20995;-58
2022/11/07 06:48:30;;;;;;;8.93;2.30;;;;;;;12.51;100.00;100061.00;5048888;28;20447;-58
2022/11/07 06:51:01;;;;;;;0.40;0.30;;;;;;;12.35;100.00;100074.94;5048982;28;20887;-57
2022/11/07 06:53:28;;;;;;;2.63;0.60;;;;;;;12.52;100.00;100073.38;5048799;28;20513;-58
2022/11/07 06:55:57;;;;;;;3.43;1.43;;;;;;;12.37;100.00;100080.19;5048391;28;20470;-57
2022/11/07 06:58:24;;;;;;;29.87;1.13;;;;;;;12.52;100.00;100068.91;5048658;28;21002;-58
2022/11/07 07:00:50;;;;;;;2.20;0.50;;;;;;;12.57;100.00;100080.25;5048696;28;20459;-58
2022/11/07 07:03:17;;;;;;;1.13;0.97;;;;;;;12.54;100.00;100079.53;5048639;28;20489;-58
2022/11/07 07:05:44;;;;;;;4.40;0.93;;;;;;;12.51;100.00;100079.66;5048707;28;20487;-57
2022/11/07 07:08:11;;;;;;;0.57;0.57;;;;;;;12.62;100.00;100096.97;5048622;28;20496;-57
2022/11/07 07:10:41;;;;;;;0.50;0.43;;;;;;;12.72;100.00;100089.44;5030748;28;20558;-58
2022/11/07 07:13:08;;;;;;;0.50;0.43;;;;;;;12.57;100.00;100092.72;5048744;28;20450;-58
2022/11/07 07:15:35;;;;;;;12.43;0.67;;;;;;;12.64;100.00;100089.75;5048393;28;20539;-57
2022/11/07 07:18:16;;;;;;;0.90;0.90;;;;;;;12.63;100.00;100092.50;5048567;28;20585;-57
2022/11/07 07:20:42;;;;;;;1.70;1.07;;;;;;;12.57;100.00;100100.72;5048455;28;20457;-58
2022/11/07 07:23:08;;;;;;;7.07;0.90;;;;;;;12.66;100.00;100103.91;5048375;28;20532;-57
2022/11/07 07:25:35;;;;;;;0.90;0.60;;;;;;;12.71;100.00;100101.03;5048747;28;20508;-58
2022/11/07 07:28:01;;;;;;;0.50;0.40;;;;;;;12.70;100.00;100104.63;5047219;28;20477;-58
2022/11/07 07:30:28;;;;;;;2.73;0.70;;;;;;;12.74;100.00;100107.09;5048202;28;20957;-57
2022/11/07 07:32:54;;;;;;;0.53;0.50;;;;;;;12.89;100.00;100113.66;5045869;28;20448;-58
2022/11/07 07:35:20;;;;;;;1.47;0.80;;;;;;;12.98;100.00;100113.25;5035504;28;20455;-58
2022/11/07 07:37:50;;;;;;;1.00;1.00;;;;;;;12.80;100.00;100121.16;5051833;28;20883;-58
2022/11/07 07:40:18;;;;;;;2.13;1.53;;;;;;;12.93;100.00;100112.59;5034602;28;20454;-58
2022/11/07 07:42:45;;;;;;;0.77;0.77;;;;;;;12.94;100.00;100119.66;5052450;28;20461;-58
2022/11/07 07:45:14;;;;;;;7.40;0.70;;;;;;;13.07;100.00;100130.69;5052130;28;20563;-58
2022/11/07 07:47:40;;;;;;;1.13;1.13;;;;;;;12.93;100.00;100125.06;5051856;28;20473;-57
2022/11/07 07:50:09;;;;;;;15.83;1.17;;;;;;;13.00;100.00;100124.72;5051742;28;20460;-58
2022/11/07 07:52:36;;;;;;;7.17;0.70;;;;;;;13.10;100.00;100127.88;5051716;28;20982;-58
2022/11/07 07:55:04;;;;;;;0.90;0.70;;;;;;;13.06;100.00;100128.97;5052116;28;20458;-58
2022/11/07 07:57:30;;;;;;;0.70;0.60;;;;;;;13.14;100.00;100128.63;5051896;28;20494;-58
2022/11/07 07:59:56;;;;;;;0.87;0.83;;;;;;;13.28;100.00;100135.16;5051806;28;20497;-58
2022/11/07 08:02:23;;;;;;;1.43;0.40;;;;;;;13.25;100.00;100126.41;5051882;28;20459;-58
2022/11/07 08:04:49;;;;;;;4.53;0.67;;;;;;;13.20;100.00;100129.28;5051575;28;20576;-59
2022/11/07 08:07:16;;;;;;;0.70;0.70;;;;;;;13.23;100.00;100126.47;5051850;28;20478;-58
2022/11/07 08:09:42;;;;;;;1.40;0.83;;;;;;;13.33;100.00;100132.31;5051888;28;20450;-58
2022/11/07 08:12:08;;;;;;;9.30;1.23;;;;;;;13.24;100.00;100138.88;5051704;28;20450;-58
2022/11/07 08:14:35;;;;;;;0.53;0.50;;;;;;;13.25;100.00;100134.41;5051642;28;20454;-58
2022/11/07 08:17:02;;;;;;;0.67;0.60;;;;;;;13.27;100.00;100138.75;5051284;28;20482;-57
2022/11/07 08:19:28;;;;;;;0.80;0.70;;;;;;;13.38;100.00;100134.78;5051333;28;21054;-58
2022/11/07 08:21:55;;;;;;;0.93;0.87;;;;;;;13.44;100.00;100139.88;5051294;28;20508;-58
2022/11/07 08:24:21;;;;;;;2.20;1.27;;;;;;;13.62;100.00;100145.28;5051313;28;20454;-58
2022/11/07 08:26:48;;;;;;;9.23;0.90;;;;;;;13.69;100.00;100142.31;5051196;28;20515;-58
2022/11/07 08:29:14;;;;;;;0.60;0.57;;;;;;;13.77;100.00;100137.53;5051190;28;20943;-58
2022/11/07 08:31:40;;;;;;;7.73;1.03;;;;;;;13.69;100.00;100140.50;5049204;28;20455;-57
2022/11/07 08:34:07;;;;;;;27.80;1.50;;;;;;;13.66;100.00;100151.34;5051355;28;20458;-59
2022/11/07 08:36:33;;;;;;;1.77;1.17;;;;;;;13.92;100.00;100139.50;5051391;28;20497;-58
2022/11/07 08:39:00;;;;;;;1.53;1.20;;;;;;;14.02;100.00;100145.31;5051219;28;20491;-58
2022/11/07 08:41:26;;;;;;;1.20;0.80;;;;;;;13.84;100.00;100145.22;5050793;28;20806;-57
2022/11/07 08:43:52;;;;;;;0.97;0.70;;;;;;;13.84;100.00;100157.66;5051346;28;20450;-57
2022/11/07 08:46:19;;;;;;;2.13;0.77;;;;;;;13.83;100.00;100148.78;5050822;28;20923;-59
2022/11/07 08:48:45;;;;;;;0.70;0.70;;;;;;;13.89;100.00;100148.53;5051057;28;21330;-58
2022/11/07 08:51:12;;;;;;;17.63;3.50;;;;;;;13.91;100.00;100152.00;5050836;28;20450;-58
2022/11/07 08:53:38;;;;;;;0.70;0.57;;;;;;;13.95;100.00;100152.72;5050817;28;20459;-58
2022/11/07 08:56:07;;;;;;;9.63;1.63;;;;;;;14.16;100.00;100149.09;5050651;28;21003;-59
2022/11/07 08:58:35;;;;;;;0.80;0.60;;;;;;;13.97;100.00;100150.84;5051205;28;20505;-58
2022/11/07 09:01:07;;;;;;;12.60;0.80;;;;;;;14.15;100.00;100142.03;5050248;28;20462;-58
2022/11/07 09:03:35;;;;;;;10.57;1.00;;;;;;;14.03;100.00;100137.22;5050847;28;20451;-58
2022/11/07 09:06:13;;;;;;;1.20;0.93;;;;;;;13.87;100.00;100139.72;5050650;28;20471;-58
2022/11/07 09:08:39;;;;;;;6.50;0.43;;;;;;;13.94;100.00;100141.16;5050817;28;20501;-58
2022/11/07 09:11:06;;;;;;;1.00;0.70;;;;;;;14.07;100.00;100133.47;5050516;28;20458;-58
2022/11/07 09:13:33;;;;;;;3.57;0.63;;;;;;;14.08;100.00;100145.03;5050076;28;20447;-58
2022/11/07 09:16:02;;;;;;;0.93;0.83;;;;;;;14.29;100.00;100152.09;5050359;28;20495;-58
2022/11/07 09:18:28;;;;;;;1.80;1.00;;;;;;;14.37;100.00;100146.34;5051128;28;20495;-59
2022/11/07 09:20:56;;;;;;;0.50;0.40;;;;;;;14.41;100.00;100147.97;5050451;28;20450;-58
2022/11/07 09:23:22;;;;;;;1.60;0.60;;;;;;;14.40;100.00;100147.09;5032619;28;20450;-59
2022/11/07 09:25:49;;;;;;;18.67;1.80;;;;;;;14.58;100.00;100147.22;5050239;28;20552;-59
2022/11/07 09:28:15;;;;;;;7.20;0.70;;;;;;;14.22;100.00;100151.47;5049851;28;20457;-58
2022/11/07 09:30:42;;;;;;;0.87;0.70;;;;;;;14.47;100.00;100143.22;5050175;28;20466;-58
2022/11/07 09:33:09;;;;;;;8.63;0.70;;;;;;;14.39;100.00;100145.38;5029839;28;20893;-58
2022/11/07 09:35:35;;;;;;;7.97;0.70;;;;;;;14.40;100.00;100147.09;5050262;28;20436;-59
2022/11/07 09:38:01;;;;;;;0.50;0.40;;;;;;;14.21;100.00;100146.19;5049717;28;20894;-59
2022/11/07 09:41:19;;;;;;;0.70;0.57;;;;;;;14.22;100.00;100147.94;5050227;28;20508;-59
2022/11/07 09:44:11;;;;;;;6.53;1.40;;;;;;;14.24;100.00;100144.25;5005830;28;20459;-59
2022/11/07 09:46:51;;;;;;;2.10;0.47;;;;;;;14.22;100.00;100166.66;5049610;28;20467;-59
2022/11/07 09:49:20;;;;;;;14.33;1.77;;;;;;;14.30;100.00;100163.66;5049761;28;20996;-59
2022/11/07 09:51:52;;;;;;;2.60;1.00;;;;;;;14.65;100.00;100162.00;5049984;28;20454;-58
2022/11/07 09:54:27;;;;;;;1.93;0.63;;;;;;;14.74;99.54;100164.25;5049717;28;20451;-59
2022/11/07 09:56:56;;;;;;;6.40;1.00;;;;;;;14.98;99.19;100172.94;5049517;28;20466;-59
2022/11/07 09:59:39;;;;;;;0.63;0.63;;;;;;;14.95;99.26;100171.28;5048341;28;20494;-59
2022/11/07 10:02:14;;;;;;;1.83;0.67;;;;;;;14.85;98.54;100178.00;5049774;28;20421;-59
2022/11/07 10:04:42;;;;;;;5.00;0.90;;;;;;;14.92;98.71;100186.59;5049490;28;20967;-59
2022/11/07 10:07:16;;;;;;;24.57;1.27;;;;;;;14.89;98.83;100195.63;5049589;28;20466;-59
2022/11/07 10:09:54;;;;;;;0.70;0.70;;;;;;;14.80;99.20;100198.75;5049169;28;20453;-59
2022/11/07 10:12:33;;;;;;;5.40;0.67;;;;;;;14.84;99.34;100196.81;5049338;28;20447;-59
2022/11/07 10:15:08;;;;;;;0.93;0.83;;;;;;;14.54;99.42;100194.66;5049197;28;20778;-59
2022/11/07 10:17:44;;;;;;;8.03;1.60;;;;;;;14.72;99.05;100196.44;5035936;28;20460;-58
2022/11/07 10:20:17;;;;;;;10.57;0.67;;;;;;;14.85;99.23;100193.19;5048947;28;20512;-59
2022/11/07 10:23:08;;;;;;;1.17;0.90;;;;;;;14.66;99.72;100193.19;5032400;28;20450;-59
2022/11/07 10:25:48;;;;;;;8.50;2.00;;;;;;;14.75;99.75;100198.97;5048876;28;20451;-59
2022/11/07 10:28:17;;;;;;;7.73;2.17;;;;;;;14.73;100.00;100194.63;5048975;28;20450;-59
2022/11/07 10:30:49;;;;;;;2.93;1.00;;;;;;;14.72;99.83;100195.59;5048923;28;20524;-59
2022/11/07 10:33:33;;;;;;;1.53;1.17;;;;;;;14.93;99.55;100204.38;5046939;28;20947;-58
2022/11/07 10:36:22;;;;;;;5.23;1.33;;;;;;;14.95;99.20;100208.75;5049733;28;20440;-59
2022/11/07 10:38:49;;;;;;;16.27;1.10;;;;;;;14.97;99.55;100211.34;5048771;28;20468;-59
2022/11/07 10:41:28;;;;;;;1.57;0.77;;;;;;;14.98;99.31;100208.59;5049008;28;20455;-59
2022/11/07 10:44:02;;;;;;;1.53;1.43;;;;;;;15.06;98.98;100209.06;5049212;28;20501;-59
2022/11/07 10:46:39;;;;;;;20.53;1.63;;;;;;;14.90;98.77;100205.41;5048607;28;20516;-58
2022/11/07 10:49:25;;;;;;;2.37;0.50;;;;;;;15.14;98.63;100200.69;5048723;28;20416;-59
2022/11/07 10:51:53;;;;;;;4.10;0.57;;;;;;;15.23;97.90;100202.91;5038151;28;20831;-59
2022/11/07 10:54:29;;;;;;;3.90;0.77;;;;;;;15.09;98.73;100202.72;5048806;28;20462;-59
2022/11/07 10:57:10;;;;;;;0.83;0.83;;;;;;;15.34;97.51;100197.00;5048757;28;20466;-59
2022/11/07 10:59:43;;;;;;;1.97;1.47;;;;;;;15.41;98.11;100198.47;5048534;28;20490;-59
2022/11/07 11:02:23;;;;;;;0.50;0.40;;;;;;;15.07;97.09;100194.75;5048736;28;20856;-59
2022/11/07 11:04:52;;;;;;;1.23;0.67;;;;;;;15.24;97.47;100195.75;5049008;28;20422;-59
2022/11/07 11:07:19;;;;;;;0.50;0.40;;;;;;;15.35;97.49;100193.38;5048339;28;20497;-59
2022/11/07 11:09:56;;;;;;;3.10;2.13;;;;;;;15.54;97.05;100193.34;5049662;28;20457;-58
2022/11/07 11:12:33;;;;;;;6.20;1.20;;;;;;;15.62;96.54;100193.84;5052467;28;20490;-59
2022/11/07 11:15:12;;;;;;;19.33;0.80;;;;;;;15.80;96.16;100184.88;5052675;28;20421;-59
2022/11/07 11:17:39;;;;;;;2.83;0.67;;;;;;;15.78;95.13;100183.22;5040232;28;20457;-59
2022/11/07 11:20:38;;;;;;;6.33;0.60;;;;;;;15.58;95.05;100179.72;5052334;28;20530;-59
2022/11/07 11:23:26;;;;;;;6.83;1.23;;;;;;;15.59;95.63;100178.78;5009496;28;20434;-59
2022/11/07 11:26:00;;;;;;;1.77;0.90;;;;;;;15.48;96.13;100177.56;5052349;28;20437;-59
2022/11/07 11:28:35;;;;;;;2.90;1.37;;;;;;;15.53;96.33;100168.38;5052226;28;20442;-59
2022/11/07 11:31:06;;;;;;;2.60;1.07;;;;;;;15.50;96.21;100171.22;5051684;28;20447;-59
2022/11/07 11:33:45;;;;;;;1.90;0.97;;;;;;;15.61;95.73;100168.88;5051186;28;20504;-59
2022/11/07 11:36:18;;;;;;;0.87;0.60;;;;;;;15.59;95.44;100160.03;5052413;28;20524;-58
2022/11/07 11:38:53;;;;;;;0.80;0.57;;;;;;;15.64;95.28;100167.88;5052366;28;20490;-58